sensor_id;sensor_type;location;lat;lon;timestamp;pressure;altitude;pressure_sealevel;temperature;humidity
83664;BME280;73634;47.068;15.426;2024-02-16T00:04:15;97864.66;;;4.50;77.75
83664;BME280;73634;47.068;15.426;2024-02-16T00:06:40;97855.94;;;4.39;78.54
83664;BME280;73634;47.068;15.426;2024-02-16T00:09:06;97864.13;;;4.36;78.33
83664;BME280;73634;47.068;15.426;2024-02-16T00:11:31;97858.31;;;4.29;79.23
83664;BME280;73634;47.068;15.426;2024-02-16T00:13:56;97863.47;;;4.29;78.63
83664;BME280;73634;47.068;15.426;2024-02-16T00:16:22;97858.75;;;4.26;79.13
83664;BME280;73634;47.068;15.426;2024-02-16T00:18:47;97865.94;;;4.24;78.89
83664;BME280;73634;47.068;15.426;2024-02-16T00:21:12;97860.88;;;4.17;78.67
83664;BME280;73634;47.068;15.426;2024-02-16T00:23:38;97866.81;;;4.18;78.78
83664;BME280;73634;47.068;15.426;2024-02-16T00:26:03;97860.09;;;4.17;78.84
83664;BME280;73634;47.068;15.426;2024-02-16T00:30:25;97861.91;;;4.16;79.15
83664;BME280;73634;47.068;15.426;2024-02-16T00:32:52;97854.06;;;4.11;79.15
83664;BME280;73634;47.068;15.426;2024-02-16T00:35:17;97863.00;;;4.09;79.37
83664;BME280;73634;47.068;15.426;2024-02-16T00:37:44;97862.13;;;4.03;79.26
83664;BME280;73634;47.068;15.426;2024-02-16T00:40:11;97856.66;;;3.99;79.58
83664;BME280;73634;47.068;15.426;2024-02-16T00:42:37;97847.81;;;3.95;79.75
83664;BME280;73634;47.068;15.426;2024-02-16T00:45:02;97849.84;;;3.93;79.64
83664;BME280;73634;47.068;15.426;2024-02-16T00:47:29;97847.81;;;3.95;79.88
83664;BME280;73634;47.068;15.426;2024-02-16T00:49:54;97845.25;;;3.95;79.75
83664;BME280;73634;47.068;15.426;2024-02-16T00:55:22;97840.09;;;3.95;79.76
83664;BME280;73634;47.068;15.426;2024-02-16T00:57:47;97841.53;;;3.91;80.12
83664;BME280;73634;47.068;15.426;2024-02-16T01:00:13;97843.56;;;3.89;79.88
83664;BME280;73634;47.068;15.426;2024-02-16T01:02:40;97849.50;;;3.90;79.81
83664;BME280;73634;47.068;15.426;2024-02-16T01:05:06;97853.06;;;3.89;80.10
83664;BME280;73634;47.068;15.426;2024-02-16T01:07:31;97849.94;;;3.87;80.58
83664;BME280;73634;47.068;15.426;2024-02-16T01:09:57;97849.72;;;3.88;79.95
83664;BME280;73634;47.068;15.426;2024-02-16T01:12:22;97861.56;;;3.89;80.08
83664;BME280;73634;47.068;15.426;2024-02-16T01:14:48;97858.44;;;3.87;80.27
83664;BME280;73634;47.068;15.426;2024-02-16T01:19:48;97856.88;;;3.86;80.20
83664;BME280;73634;47.068;15.426;2024-02-16T01:22:13;97858.66;;;3.86;79.96
83664;BME280;73634;47.068;15.426;2024-02-16T01:24:39;97855.97;;;3.81;80.40
83664;BME280;73634;47.068;15.426;2024-02-16T01:27:04;97854.63;;;3.78;80.53
83664;BME280;73634;47.068;15.426;2024-02-16T01:29:30;97853.28;;;3.76;79.91
83664;BME280;73634;47.068;15.426;2024-02-16T01:31:55;97855.94;;;3.69;80.87
83664;BME280;73634;47.068;15.426;2024-02-16T01:34:20;97850.03;;;3.68;80.69
83664;BME280;73634;47.068;15.426;2024-02-16T01:36:46;97852.94;;;3.72;80.06
83664;BME280;73634;47.068;15.426;2024-02-16T01:39:11;97847.56;;;3.74;80.44
83664;BME280;73634;47.068;15.426;2024-02-16T01:44:14;97853.16;;;3.59;81.22
83664;BME280;73634;47.068;15.426;2024-02-16T01:46:42;97850.03;;;3.57;80.99
83664;BME280;73634;47.068;15.426;2024-02-16T01:49:07;97855.63;;;3.54;81.19
83664;BME280;73634;47.068;15.426;2024-02-16T01:51:35;97852.25;;;3.53;81.11
83664;BME280;73634;47.068;15.426;2024-02-16T01:54:00;97851.69;;;3.51;81.42
83664;BME280;73634;47.068;15.426;2024-02-16T01:56:27;97851.91;;;3.50;81.04
83664;BME280;73634;47.068;15.426;2024-02-16T01:58:52;97844.97;;;3.50;81.27
83664;BME280;73634;47.068;15.426;2024-02-16T02:01:17;97850.34;;;3.49;80.73
83664;BME280;73634;47.068;15.426;2024-02-16T02:03:43;97851.56;;;3.46;80.78
83664;BME280;73634;47.068;15.426;2024-02-16T02:07:55;97844.28;;;3.43;80.81
83664;BME280;73634;47.068;15.426;2024-02-16T02:10:21;97841.72;;;3.43;81.13
83664;BME280;73634;47.068;15.426;2024-02-16T02:12:47;97842.72;;;3.42;81.46
83664;BME280;73634;47.068;15.426;2024-02-16T02:15:12;97843.28;;;3.44;81.20
83664;BME280;73634;47.068;15.426;2024-02-16T02:17:38;97840.03;;;3.37;81.60
83664;BME280;73634;47.068;15.426;2024-02-16T02:20:04;97832.97;;;3.32;81.52
83664;BME280;73634;47.068;15.426;2024-02-16T02:22:33;97834.75;;;3.32;81.83
83664;BME280;73634;47.068;15.426;2024-02-16T02:24:58;97837.34;;;3.32;81.67
83664;BME280;73634;47.068;15.426;2024-02-16T02:27:23;97829.41;;;3.33;81.39
83664;BME280;73634;47.068;15.426;2024-02-16T02:32:26;97827.69;;;3.27;81.99
83664;BME280;73634;47.068;15.426;2024-02-16T02:34:52;97824.00;;;3.23;82.27
83664;BME280;73634;47.068;15.426;2024-02-16T02:37:17;97826.34;;;3.25;82.14
83664;BME280;73634;47.068;15.426;2024-02-16T02:39:42;97829.84;;;3.30;82.20
83664;BME280;73634;47.068;15.426;2024-02-16T02:42:09;97824.25;;;3.33;81.68
83664;BME280;73634;47.068;15.426;2024-02-16T02:44:35;97827.03;;;3.32;81.13
83664;BME280;73634;47.068;15.426;2024-02-16T02:47:01;97828.03;;;3.31;81.70
83664;BME280;73634;47.068;15.426;2024-02-16T02:49:26;97821.91;;;3.32;81.53
83664;BME280;73634;47.068;15.426;2024-02-16T02:51:51;97817.63;;;3.26;81.25
83664;BME280;73634;47.068;15.426;2024-02-16T02:56:36;97813.16;;;3.21;82.04
83664;BME280;73634;47.068;15.426;2024-02-16T02:59:02;97815.72;;;3.21;82.07
83664;BME280;73634;47.068;15.426;2024-02-16T03:01:28;97809.25;;;3.19;82.40
83664;BME280;73634;47.068;15.426;2024-02-16T03:03:53;97806.69;;;3.19;82.23
83664;BME280;73634;47.068;15.426;2024-02-16T03:06:19;97817.41;;;3.16;82.05
83664;BME280;73634;47.068;15.426;2024-02-16T03:08:45;97812.91;;;3.11;83.18
83664;BME280;73634;47.068;15.426;2024-02-16T03:11:10;97807.44;;;3.08;82.55
83664;BME280;73634;47.068;15.426;2024-02-16T03:13:36;97809.56;;;3.11;82.81
83664;BME280;73634;47.068;15.426;2024-02-16T03:16:02;97806.78;;;3.12;82.73
83664;BME280;73634;47.068;15.426;2024-02-16T03:21:00;97806.09;;;3.05;83.11
83664;BME280;73634;47.068;15.426;2024-02-16T03:23:26;97812.56;;;3.08;82.85
83664;BME280;73634;47.068;15.426;2024-02-16T03:25:52;97801.94;;;3.04;83.17
83664;BME280;73634;47.068;15.426;2024-02-16T03:28:17;97808.22;;;3.08;82.56
83664;BME280;73634;47.068;15.426;2024-02-16T03:30:44;97806.44;;;3.09;82.90
83664;BME280;73634;47.068;15.426;2024-02-16T03:33:09;97809.00;;;3.09;82.48
83664;BME280;73634;47.068;15.426;2024-02-16T03:35:36;97811.56;;;3.09;83.13
83664;BME280;73634;47.068;15.426;2024-02-16T03:38:04;97806.09;;;3.05;82.12
83664;BME280;73634;47.068;15.426;2024-02-16T03:41:41;97807.31;;;3.03;82.66
83664;BME280;73634;47.068;15.426;2024-02-16T03:44:06;97810.09;;;3.01;82.58
83664;BME280;73634;47.068;15.426;2024-02-16T03:46:32;97815.81;;;3.03;82.67
83664;BME280;73634;47.068;15.426;2024-02-16T03:48:57;97822.94;;;3.01;82.45
83664;BME280;73634;47.068;15.426;2024-02-16T03:51:23;97827.31;;;3.00;83.02
83664;BME280;73634;47.068;15.426;2024-02-16T03:53:48;97833.66;;;2.98;82.96
83664;BME280;73634;47.068;15.426;2024-02-16T03:56:20;97840.03;;;2.95;83.10
83664;BME280;73634;47.068;15.426;2024-02-16T03:58:46;97836.66;;;2.95;83.01
83664;BME280;73634;47.068;15.426;2024-02-16T04:03:22;97847.38;;;2.92;83.06
83664;BME280;73634;47.068;15.426;2024-02-16T04:05:47;97851.31;;;2.94;82.68
83664;BME280;73634;47.068;15.426;2024-02-16T04:08:13;97845.38;;;2.94;82.72
83664;BME280;73634;47.068;15.426;2024-02-16T04:10:38;97846.03;;;2.89;82.46
83664;BME280;73634;47.068;15.426;2024-02-16T04:13:04;97840.41;;;2.81;82.82
83664;BME280;73634;47.068;15.426;2024-02-16T04:15:29;97841.19;;;2.81;83.47
83664;BME280;73634;47.068;15.426;2024-02-16T04:17:55;97839.63;;;2.80;82.94
83664;BME280;73634;47.068;15.426;2024-02-16T04:20:20;97839.97;;;2.84;83.08
83664;BME280;73634;47.068;15.426;2024-02-16T04:22:46;97837.41;;;2.84;83.03
83664;BME280;73634;47.068;15.426;2024-02-16T04:26:47;97841.19;;;2.81;83.20
83664;BME280;73634;47.068;15.426;2024-02-16T04:29:13;97844.53;;;2.82;83.56
83664;BME280;73634;47.068;15.426;2024-02-16T04:31:39;97838.63;;;2.81;83.35
83664;BME280;73634;47.068;15.426;2024-02-16T04:34:05;97840.19;;;2.82;83.41
83664;BME280;73634;47.068;15.426;2024-02-16T04:36:30;97843.53;;;2.83;83.26
83664;BME280;73634;47.068;15.426;2024-02-16T04:38:56;97840.97;;;2.83;83.29
83664;BME280;73634;47.068;15.426;2024-02-16T04:41:21;97841.66;;;2.78;83.52
83664;BME280;73634;47.068;15.426;2024-02-16T04:43:47;97843.22;;;2.79;83.57
83664;BME280;73634;47.068;15.426;2024-02-16T04:46:16;97840.41;;;2.81;83.40
83664;BME280;73634;47.068;15.426;2024-02-16T04:48:41;97839.63;;;2.80;83.25
83664;BME280;73634;47.068;15.426;2024-02-16T04:52:14;97842.44;;;2.79;83.50
83664;BME280;73634;47.068;15.426;2024-02-16T04:54:39;97839.72;;;2.74;83.45
83664;BME280;73634;47.068;15.426;2024-02-16T04:57:06;97841.72;;;2.72;83.94
83664;BME280;73634;47.068;15.426;2024-02-16T04:59:31;97842.59;;;2.65;83.32
83664;BME280;73634;47.068;15.426;2024-02-16T05:01:56;97841.44;;;2.61;83.72
83664;BME280;73634;47.068;15.426;2024-02-16T05:04:22;97845.56;;;2.62;83.23
83664;BME280;73634;47.068;15.426;2024-02-16T05:06:47;97843.44;;;2.59;83.85
83664;BME280;73634;47.068;15.426;2024-02-16T05:09:13;97850.34;;;2.59;83.64
83664;BME280;73634;47.068;15.426;2024-02-16T05:11:42;97852.56;;;2.55;84.06
83664;BME280;73634;47.068;15.426;2024-02-16T05:14:07;97850.16;;;2.60;83.87
83664;BME280;73634;47.068;15.426;2024-02-16T05:19:09;97849.72;;;2.63;83.97
83664;BME280;73634;47.068;15.426;2024-02-16T05:21:34;97855.84;;;2.62;83.79
83664;BME280;73634;47.068;15.426;2024-02-16T05:24:00;97849.34;;;2.60;83.92
83664;BME280;73634;47.068;15.426;2024-02-16T05:26:25;97856.50;;;2.58;83.88
83664;BME280;73634;47.068;15.426;2024-02-16T05:28:51;97853.72;;;2.59;83.68
83664;BME280;73634;47.068;15.426;2024-02-16T05:31:17;97850.34;;;2.59;84.01
83664;BME280;73634;47.068;15.426;2024-02-16T05:33:44;97850.56;;;2.57;83.70
83664;BME280;73634;47.068;15.426;2024-02-16T05:36:10;97847.88;;;2.52;83.44
83664;BME280;73634;47.068;15.426;2024-02-16T05:38:35;97850.06;;;2.49;83.76
83664;BME280;73634;47.068;15.426;2024-02-16T05:43:38;97854.00;;;2.51;83.36
83664;BME280;73634;47.068;15.426;2024-02-16T05:46:04;97844.94;;;2.49;83.35
83664;BME280;73634;47.068;15.426;2024-02-16T05:48:33;97856.63;;;2.45;83.67
83664;BME280;73634;47.068;15.426;2024-02-16T05:51:03;97861.13;;;2.49;83.82
83664;BME280;73634;47.068;15.426;2024-02-16T05:53:28;97857.41;;;2.45;83.84
83664;BME280;73634;47.068;15.426;2024-02-16T05:55:54;97860.91;;;2.51;83.74
83664;BME280;73634;47.068;15.426;2024-02-16T05:58:20;97868.25;;;2.47;83.47
83664;BME280;73634;47.068;15.426;2024-02-16T06:00:46;97875.53;;;2.50;83.57
83664;BME280;73634;47.068;15.426;2024-02-16T06:03:13;97873.69;;;2.57;83.28
83664;BME280;73634;47.068;15.426;2024-02-16T06:08:34;97874.69;;;2.56;83.20
83664;BME280;73634;47.068;15.426;2024-02-16T06:10:59;97879.41;;;2.59;82.96
83664;BME280;73634;47.068;15.426;2024-02-16T06:13:27;97874.97;;;2.66;83.18
83664;BME280;73634;47.068;15.426;2024-02-16T06:15:53;97883.66;;;2.84;82.68
83664;BME280;73634;47.068;15.426;2024-02-16T06:18:18;97888.41;;;2.98;82.28
83664;BME280;73634;47.068;15.426;2024-02-16T06:20:44;97884.19;;;3.04;81.57
83664;BME280;73634;47.068;15.426;2024-02-16T06:23:10;97886.59;;;3.17;81.40
83664;BME280;73634;47.068;15.426;2024-02-16T06:25:36;97888.19;;;3.18;80.96
83664;BME280;73634;47.068;15.426;2024-02-16T06:28:02;97897.69;;;3.29;80.92
83664;BME280;73634;47.068;15.426;2024-02-16T06:31:59;97895.81;;;3.37;79.96
83664;BME280;73634;47.068;15.426;2024-02-16T06:34:27;97897.66;;;3.48;79.77
83664;BME280;73634;47.068;15.426;2024-02-16T06:36:52;97898.34;;;3.55;78.73
83664;BME280;73634;47.068;15.426;2024-02-16T06:39:17;97897.78;;;3.53;79.63
83664;BME280;73634;47.068;15.426;2024-02-16T06:41:44;97894.34;;;3.82;78.92
83664;BME280;73634;47.068;15.426;2024-02-16T06:44:10;97896.31;;;5.14;74.47
83664;BME280;73634;47.068;15.426;2024-02-16T06:46:36;97888.66;;;6.53;69.55
83664;BME280;73634;47.068;15.426;2024-02-16T06:49:01;97888.03;;;7.70;64.08
83664;BME280;73634;47.068;15.426;2024-02-16T06:51:27;97895.53;;;9.03;60.58
83664;BME280;73634;47.068;15.426;2024-02-16T06:53:54;97891.75;;;9.97;55.73
83664;BME280;73634;47.068;15.426;2024-02-16T06:58:26;97895.91;;;9.98;54.27
83664;BME280;73634;47.068;15.426;2024-02-16T07:00:51;97903.91;;;9.35;55.88
83664;BME280;73634;47.068;15.426;2024-02-16T07:03:17;97906.78;;;10.05;53.22
83664;BME280;73634;47.068;15.426;2024-02-16T07:05:43;97901.22;;;10.78;51.14
83664;BME280;73634;47.068;15.426;2024-02-16T07:08:09;97906.28;;;10.03;52.96
83664;BME280;73634;47.068;15.426;2024-02-16T07:10:34;97903.16;;;10.01;53.12
83664;BME280;73634;47.068;15.426;2024-02-16T07:13:00;97911.22;;;9.69;53.81
83664;BME280;73634;47.068;15.426;2024-02-16T07:15:25;97902.34;;;9.34;54.99
83664;BME280;73634;47.068;15.426;2024-02-16T07:17:52;97903.34;;;9.08;57.13
83664;BME280;73634;47.068;15.426;2024-02-16T07:22:52;97901.34;;;11.85;48.39
83664;BME280;73634;47.068;15.426;2024-02-16T07:25:17;97891.47;;;13.44;44.63
83664;BME280;73634;47.068;15.426;2024-02-16T07:27:43;97892.41;;;13.53;43.83
83664;BME280;73634;47.068;15.426;2024-02-16T07:30:09;97883.75;;;12.96;44.81
83664;BME280;73634;47.068;15.426;2024-02-16T07:32:36;97891.06;;;12.94;45.66
83664;BME280;73634;47.068;15.426;2024-02-16T07:35:01;97892.63;;;13.70;44.42
83664;BME280;73634;47.068;15.426;2024-02-16T07:37:28;97893.75;;;12.89;45.64
83664;BME280;73634;47.068;15.426;2024-02-16T07:39:53;97893.09;;;13.40;43.49
83664;BME280;73634;47.068;15.426;2024-02-16T07:42:19;97885.88;;;15.70;39.02
83664;BME280;73634;47.068;15.426;2024-02-16T07:48:03;97889.66;;;16.39;36.69
83664;BME280;73634;47.068;15.426;2024-02-16T07:50:30;97892.63;;;17.12;35.52
83664;BME280;73634;47.068;15.426;2024-02-16T07:52:56;97890.13;;;16.98;35.09
83664;BME280;73634;47.068;15.426;2024-02-16T07:55:22;97891.34;;;16.75;35.63
83664;BME280;73634;47.068;15.426;2024-02-16T07:57:50;97895.41;;;14.80;39.17
83664;BME280;73634;47.068;15.426;2024-02-16T08:00:15;97891.78;;;15.39;38.69
83664;BME280;73634;47.068;15.426;2024-02-16T08:02:43;97890.16;;;17.58;34.30
83664;BME280;73634;47.068;15.426;2024-02-16T08:05:12;97882.41;;;18.73;32.17
83664;BME280;73634;47.068;15.426;2024-02-16T08:07:38;97894.97;;;18.29;31.99
83664;BME280;73634;47.068;15.426;2024-02-16T08:10:05;97892.91;;;17.96;33.31
83664;BME280;73634;47.068;15.426;2024-02-16T08:14:43;97892.56;;;19.54;30.78
83664;BME280;73634;47.068;15.426;2024-02-16T08:17:10;97890.47;;;20.38;29.08
83664;BME280;73634;47.068;15.426;2024-02-16T08:19:37;97895.06;;;20.89;27.99
83664;BME280;73634;47.068;15.426;2024-02-16T08:22:03;97890.31;;;20.95;27.74
83664;BME280;73634;47.068;15.426;2024-02-16T08:24:33;97889.31;;;21.00;27.98
83664;BME280;73634;47.068;15.426;2024-02-16T08:26:59;97891.53;;;21.50;27.16
83664;BME280;73634;47.068;15.426;2024-02-16T08:29:24;97891.16;;;21.23;27.31
83664;BME280;73634;47.068;15.426;2024-02-16T08:31:51;97893.16;;;21.54;26.80
83664;BME280;73634;47.068;15.426;2024-02-16T08:34:16;97886.94;;;21.35;27.11
83664;BME280;73634;47.068;15.426;2024-02-16T08:36:49;97885.88;;;20.14;29.19
83664;BME280;73634;47.068;15.426;2024-02-16T08:42:25;97885.88;;;21.11;27.94
83664;BME280;73634;47.068;15.426;2024-02-16T08:44:50;97887.50;;;22.00;26.69
83664;BME280;73634;47.068;15.426;2024-02-16T08:47:15;97890.19;;;23.13;24.94
83664;BME280;73634;47.068;15.426;2024-02-16T08:49:41;97887.81;;;23.08;24.83
83664;BME280;73634;47.068;15.426;2024-02-16T08:52:07;97883.91;;;23.60;23.88
83664;BME280;73634;47.068;15.426;2024-02-16T08:54:33;97883.22;;;23.44;24.39
83664;BME280;73634;47.068;15.426;2024-02-16T08:56:58;97886.22;;;24.04;23.36
83664;BME280;73634;47.068;15.426;2024-02-16T08:59:23;97880.63;;;23.67;24.06
83664;BME280;73634;47.068;15.426;2024-02-16T09:01:49;97894.94;;;23.04;24.64
83664;BME280;73634;47.068;15.426;2024-02-16T09:04:14;97881.81;;;22.60;25.38
83664;BME280;73634;47.068;15.426;2024-02-16T09:08:06;97884.34;;;24.27;23.21
83664;BME280;73634;47.068;15.426;2024-02-16T09:10:31;97892.63;;;24.98;22.35
83664;BME280;73634;47.068;15.426;2024-02-16T09:12:57;97877.47;;;26.06;21.04
83664;BME280;73634;47.068;15.426;2024-02-16T09:15:22;97874.81;;;24.75;22.39
83664;BME280;73634;47.068;15.426;2024-02-16T09:17:48;97872.09;;;26.02;21.02
83664;BME280;73634;47.068;15.426;2024-02-16T09:20:13;97875.19;;;27.10;19.61
83664;BME280;73634;47.068;15.426;2024-02-16T09:22:40;97876.66;;;27.01;19.67
83664;BME280;73634;47.068;15.426;2024-02-16T09:25:06;97880.31;;;26.27;20.58
83664;BME280;73634;47.068;15.426;2024-02-16T09:27:31;97870.78;;;27.64;19.40
83664;BME280;73634;47.068;15.426;2024-02-16T09:29:57;97879.63;;;28.14;18.45
83664;BME280;73634;47.068;15.426;2024-02-16T09:34:32;97889.56;;;27.85;19.02
83664;BME280;73634;47.068;15.426;2024-02-16T09:36:57;97882.63;;;27.67;18.86
83664;BME280;73634;47.068;15.426;2024-02-16T09:39:23;97883.84;;;28.12;18.60
83664;BME280;73634;47.068;15.426;2024-02-16T09:41:50;97874.28;;;28.07;18.40
83664;BME280;73634;47.068;15.426;2024-02-16T09:44:17;97880.00;;;28.73;18.19
83664;BME280;73634;47.068;15.426;2024-02-16T09:46:43;97883.13;;;28.22;18.36
83664;BME280;73634;47.068;15.426;2024-02-16T09:49:08;97884.56;;;25.87;20.39
83664;BME280;73634;47.068;15.426;2024-02-16T09:51:36;97891.81;;;25.23;22.00
83664;BME280;73634;47.068;15.426;2024-02-16T09:54:03;97877.13;;;24.77;22.49
83664;BME280;73634;47.068;15.426;2024-02-16T09:56:28;97885.53;;;24.30;23.06
83664;BME280;73634;47.068;15.426;2024-02-16T10:01:29;97870.38;;;25.80;21.25
83664;BME280;73634;47.068;15.426;2024-02-16T10:04:05;97877.59;;;27.44;19.38
83664;BME280;73634;47.068;15.426;2024-02-16T10:06:31;97877.25;;;26.73;20.01
83664;BME280;73634;47.068;15.426;2024-02-16T10:08:56;97878.25;;;27.19;19.85
83664;BME280;73634;47.068;15.426;2024-02-16T10:13:56;97876.31;;;25.33;22.13
83664;BME280;73634;47.068;15.426;2024-02-16T10:16:23;97880.88;;;23.81;23.55
83664;BME280;73634;47.068;15.426;2024-02-16T10:18:48;97883.91;;;21.76;26.90
83664;BME280;73634;47.068;15.426;2024-02-16T10:21:13;97876.00;;;23.64;24.66
83664;BME280;73634;47.068;15.426;2024-02-16T10:25:24;97877.13;;;23.63;23.88
83664;BME280;73634;47.068;15.426;2024-02-16T10:27:50;97874.06;;;24.75;23.12
83664;BME280;73634;47.068;15.426;2024-02-16T10:30:20;97873.41;;;23.86;24.16
83664;BME280;73634;47.068;15.426;2024-02-16T10:32:47;97873.47;;;25.15;22.74
83664;BME280;73634;47.068;15.426;2024-02-16T10:35:14;97863.06;;;25.70;22.05
83664;BME280;73634;47.068;15.426;2024-02-16T10:37:41;97865.50;;;22.11;26.58
83664;BME280;73634;47.068;15.426;2024-02-16T10:40:10;97865.19;;;24.41;23.29
83664;BME280;73634;47.068;15.426;2024-02-16T10:42:38;97856.88;;;23.35;24.89
83664;BME280;73634;47.068;15.426;2024-02-16T10:45:06;97855.94;;;24.57;23.37
83664;BME280;73634;47.068;15.426;2024-02-16T10:47:31;97862.63;;;23.79;24.82
83664;BME280;73634;47.068;15.426;2024-02-16T10:52:56;97846.13;;;25.18;22.56
83664;BME280;73634;47.068;15.426;2024-02-16T10:55:23;97848.50;;;24.44;24.15
83664;BME280;73634;47.068;15.426;2024-02-16T10:57:50;97850.72;;;24.65;23.51
83664;BME280;73634;47.068;15.426;2024-02-16T11:00:15;97844.38;;;24.73;23.61
83664;BME280;73634;47.068;15.426;2024-02-16T11:05:32;97836.34;;;25.29;22.89
83664;BME280;73634;47.068;15.426;2024-02-16T11:08:04;97834.69;;;26.39;21.49
83664;BME280;73634;47.068;15.426;2024-02-16T11:10:30;97835.31;;;26.77;20.89
83664;BME280;73634;47.068;15.426;2024-02-16T11:16:44;97834.81;;;26.57;20.54
83664;BME280;73634;47.068;15.426;2024-02-16T11:19:10;97831.88;;;23.55;24.61
83664;BME280;73634;47.068;15.426;2024-02-16T11:21:35;97823.50;;;23.99;24.58
83664;BME280;73634;47.068;15.426;2024-02-16T11:24:06;97825.31;;;24.18;24.22
83664;BME280;73634;47.068;15.426;2024-02-16T11:26:42;97822.81;;;22.83;26.00
83664;BME280;73634;47.068;15.426;2024-02-16T11:29:08;97819.72;;;23.16;25.97
83664;BME280;73634;47.068;15.426;2024-02-16T11:31:35;97805.28;;;24.01;24.71
83664;BME280;73634;47.068;15.426;2024-02-16T11:34:00;97811.41;;;22.12;26.49
83664;BME280;73634;47.068;15.426;2024-02-16T11:36:27;97810.97;;;21.35;29.07
83664;BME280;73634;47.068;15.426;2024-02-16T11:41:17;97797.63;;;25.76;22.63
83664;BME280;73634;47.068;15.426;2024-02-16T11:43:42;97799.91;;;26.90;21.09
83664;BME280;73634;47.068;15.426;2024-02-16T11:46:12;97799.69;;;25.93;22.45
83664;BME280;73634;47.068;15.426;2024-02-16T11:48:38;97805.19;;;22.55;26.28
83664;BME280;73634;47.068;15.426;2024-02-16T11:51:04;97799.63;;;24.03;24.68
83664;BME280;73634;47.068;15.426;2024-02-16T11:53:31;97788.56;;;25.84;22.40
83664;BME280;73634;47.068;15.426;2024-02-16T11:55:57;97790.22;;;25.99;21.90
83664;BME280;73634;47.068;15.426;2024-02-16T11:58:23;97786.59;;;25.03;23.24
83664;BME280;73634;47.068;15.426;2024-02-16T12:00:49;97783.13;;;24.43;23.74
83664;BME280;73634;47.068;15.426;2024-02-16T12:05:27;97784.50;;;23.19;25.85
83664;BME280;73634;47.068;15.426;2024-02-16T12:07:52;97779.47;;;22.75;26.38
83664;BME280;73634;47.068;15.426;2024-02-16T12:10:17;97787.81;;;25.09;23.45
83664;BME280;73634;47.068;15.426;2024-02-16T12:12:43;97780.31;;;25.18;23.50
83664;BME280;73634;47.068;15.426;2024-02-16T12:15:10;97789.66;;;23.73;24.87
83664;BME280;73634;47.068;15.426;2024-02-16T12:17:35;97784.50;;;20.95;29.09
83664;BME280;73634;47.068;15.426;2024-02-16T12:20:01;97793.44;;;20.26;30.53
83664;BME280;73634;47.068;15.426;2024-02-16T12:22:27;97777.63;;;21.93;27.81
83664;BME280;73634;47.068;15.426;2024-02-16T12:24:53;97776.84;;;22.24;27.17
83664;BME280;73634;47.068;15.426;2024-02-16T12:27:18;97776.38;;;20.48;29.60
83664;BME280;73634;47.068;15.426;2024-02-16T12:31:40;97781.00;;;18.91;31.56
83664;BME280;73634;47.068;15.426;2024-02-16T12:34:06;97773.94;;;22.29;27.21
83664;BME280;73634;47.068;15.426;2024-02-16T12:36:33;97765.75;;;22.54;26.52
83664;BME280;73634;47.068;15.426;2024-02-16T12:38:59;97780.41;;;21.10;28.20
83664;BME280;73634;47.068;15.426;2024-02-16T12:41:24;97771.94;;;21.04;28.76
83664;BME280;73634;47.068;15.426;2024-02-16T12:43:50;97768.50;;;21.91;27.71
83664;BME280;73634;47.068;15.426;2024-02-16T12:46:16;97773.53;;;21.96;26.61
83664;BME280;73634;47.068;15.426;2024-02-16T12:48:41;97780.31;;;20.05;29.92
83664;BME280;73634;47.068;15.426;2024-02-16T12:51:06;97763.34;;;21.82;27.66
83664;BME280;73634;47.068;15.426;2024-02-16T12:53:32;97756.25;;;22.18;26.58
83664;BME280;73634;47.068;15.426;2024-02-16T12:57:34;97766.16;;;21.74;27.82
83664;BME280;73634;47.068;15.426;2024-02-16T13:00:00;97760.47;;;18.55;32.41
83664;BME280;73634;47.068;15.426;2024-02-16T13:02:25;97755.09;;;20.96;28.51
83664;BME280;73634;47.068;15.426;2024-02-16T13:04:50;97753.16;;;20.29;29.49
83664;BME280;73634;47.068;15.426;2024-02-16T13:07:16;97758.53;;;18.43;31.91
83664;BME280;73634;47.068;15.426;2024-02-16T13:09:41;97759.75;;;20.35;29.94
83664;BME280;73634;47.068;15.426;2024-02-16T13:12:07;97753.00;;;22.24;26.37
83664;BME280;73634;47.068;15.426;2024-02-16T13:14:32;97753.69;;;20.87;28.62
83664;BME280;73634;47.068;15.426;2024-02-16T13:16:58;97744.56;;;22.03;26.84
83664;BME280;73634;47.068;15.426;2024-02-16T13:19:23;97740.41;;;23.79;24.82
83664;BME280;73634;47.068;15.426;2024-02-16T13:23:46;97741.31;;;23.64;24.87
83664;BME280;73634;47.068;15.426;2024-02-16T13:26:12;97748.41;;;20.35;29.15
83664;BME280;73634;47.068;15.426;2024-02-16T13:28:37;97747.44;;;20.39;29.46
83664;BME280;73634;47.068;15.426;2024-02-16T13:31:02;97757.09;;;19.29;31.09
83664;BME280;73634;47.068;15.426;2024-02-16T13:33:28;97749.78;;;19.47;31.39
83664;BME280;73634;47.068;15.426;2024-02-16T13:35:53;97748.84;;;20.49;29.75
83664;BME280;73634;47.068;15.426;2024-02-16T13:38:20;97754.66;;;18.41;32.53
83664;BME280;73634;47.068;15.426;2024-02-16T13:40:45;97748.50;;;20.50;29.35
83664;BME280;73634;47.068;15.426;2024-02-16T13:43:10;97752.09;;;21.85;27.29
83664;BME280;73634;47.068;15.426;2024-02-16T13:48:12;97743.25;;;22.28;26.19
83664;BME280;73634;47.068;15.426;2024-02-16T13:50:38;97747.03;;;19.43;30.68
83664;BME280;73634;47.068;15.426;2024-02-16T13:53:04;97752.66;;;19.21;32.17
83664;BME280;73634;47.068;15.426;2024-02-16T13:55:29;97743.72;;;20.68;28.72
83664;BME280;73634;47.068;15.426;2024-02-16T13:57:54;97745.94;;;21.22;28.24
83664;BME280;73634;47.068;15.426;2024-02-16T14:00:20;97743.91;;;20.23;30.18
83664;BME280;73634;47.068;15.426;2024-02-16T14:02:45;97749.44;;;19.93;31.26
83664;BME280;73634;47.068;15.426;2024-02-16T14:05:11;97741.47;;;20.30;30.02
83664;BME280;73634;47.068;15.426;2024-02-16T14:07:37;97758.00;;;19.90;30.51
83664;BME280;73634;47.068;15.426;2024-02-16T14:12:34;97756.34;;;17.31;36.28
83664;BME280;73634;47.068;15.426;2024-02-16T14:14:59;97749.19;;;17.49;36.33